sensor_id;sensor_type;location;lat;lon;timestamp;temperature;humidity
15676;DHT22;7938;47.666;9.434;2023-02-15T05:02:31;-0.70;99.90
15676;DHT22;7938;47.666;9.434;2023-02-15T05:04:58;-0.80;99.90
15676;DHT22;7938;47.666;9.434;2023-02-15T05:07:25;-0.90;99.90
15676;DHT22;7938;47.666;9.434;2023-02-15T05:09:52;-1.00;99.90
15676;DHT22;7938;47.666;9.434;2023-02-15T05:12:19;-1.10;99.90
15676;DHT22;7938;47.666;9.434;2023-02-15T05:14:46;-1.10;99.90
15676;DHT22;7938;47.666;9.434;2023-02-15T05:17:13;-1.10;99.90
15676;DHT22;7938;47.666;9.434;2023-02-15T05:19:41;-1.00;99.90
15676;DHT22;7938;47.666;9.434;2023-02-15T05:22:08;-1.10;99.90
15676;DHT22;7938;47.666;9.434;2023-02-15T05:24:34;-1.10;99.90
15676;DHT22;7938;47.666;9.434;2023-02-15T05:27:18;-1.10;99.90
15676;DHT22;7938;47.666;9.434;2023-02-15T05:30:03;-1.20;99.90
15676;DHT22;7938;47.666;9.434;2023-02-15T05:32:30;-1.20;99.90
15676;DHT22;7938;47.666;9.434;2023-02-15T05:34:59;-1.20;99.90
15676;DHT22;7938;47.666;9.434;2023-02-15T05:37:25;-1.20;99.90
15676;DHT22;7938;47.666;9.434;2023-02-15T05:39:52;-1.20;99.90
15676;DHT22;7938;47.666;9.434;2023-02-15T05:42:19;-1.20;99.90
15676;DHT22;7938;47.666;9.434;2023-02-15T05:44:46;-1.20;99.90
15676;DHT22;7938;47.666;9.434;2023-02-15T05:47:13;-1.20;99.90
15676;DHT22;7938;47.666;9.434;2023-02-15T05:49:40;-1.30;99.90
15676;DHT22;7938;47.666;9.434;2023-02-15T05:52:08;-1.30;99.90
15676;DHT22;7938;47.666;9.434;2023-02-15T05:54:35;-1.30;99.90
15676;DHT22;7938;47.666;9.434;2023-02-15T05:57:02;-1.30;99.90
15676;DHT22;7938;47.666;9.434;2023-02-15T05:59:28;-1.30;99.90
15676;DHT22;7938;47.666;9.434;2023-02-15T06:01:55;-1.30;99.90
15676;DHT22;7938;47.666;9.434;2023-02-15T06:04:22;-1.30;99.90
15676;DHT22;7938;47.666;9.434;2023-02-15T06:06:49;-1.30;99.90
15676;DHT22;7938;47.666;9.434;2023-02-15T06:09:17;-1.20;99.90
15676;DHT22;7938;47.666;9.434;2023-02-15T06:11:45;-1.20;99.90
15676;DHT22;7938;47.666;9.434;2023-02-15T06:14:12;-1.20;99.90
15676;DHT22;7938;47.666;9.434;2023-02-15T06:16:39;-1.20;99.90
15676;DHT22;7938;47.666;9.434;2023-02-15T06:19:06;-1.20;99.90
15676;DHT22;7938;47.666;9.434;2023-02-15T06:21:32;-1.20;99.90
15676;DHT22;7938;47.666;9.434;2023-02-15T06:23:59;-1.10;99.90
15676;DHT22;7938;47.666;9.434;2023-02-15T06:26:28;-1.10;99.90
15676;DHT22;7938;47.666;9.434;2023-02-15T06:28:54;-1.20;99.90
15676;DHT22;7938;47.666;9.434;2023-02-15T06:31:21;-1.20;99.90
15676;DHT22;7938;47.666;9.434;2023-02-15T06:33:48;-1.20;99.90
15676;DHT22;7938;47.666;9.434;2023-02-15T06:36:15;-1.20;99.90
15676;DHT22;7938;47.666;9.434;2023-02-15T06:38:42;-1.20;99.90
15676;DHT22;7938;47.666;9.434;2023-02-15T06:41:09;-1.20;99.90
15676;DHT22;7938;47.666;9.434;2023-02-15T06:43:37;-1.20;99.90
15676;DHT22;7938;47.666;9.434;2023-02-15T06:46:04;-1.20;99.90
15676;DHT22;7938;47.666;9.434;2023-02-15T06:48:31;-1.10;99.90
15676;DHT22;7938;47.666;9.434;2023-02-15T06:50:57;-1.20;99.90
15676;DHT22;7938;47.666;9.434;2023-02-15T06:53:24;-1.10;99.90
15676;DHT22;7938;47.666;9.434;2023-02-15T06:55:51;-1.20;99.90
15676;DHT22;7938;47.666;9.434;2023-02-15T06:58:18;-0.90;99.90
15676;DHT22;7938;47.666;9.434;2023-02-15T07:00:46;-1.20;99.90
15676;DHT22;7938;47.666;9.434;2023-02-15T07:03:14;-1.10;99.90
15676;DHT22;7938;47.666;9.434;2023-02-15T07:05:41;-1.00;99.90
15676;DHT22;7938;47.666;9.434;2023-02-15T07:08:09;-0.90;99.90
15676;DHT22;7938;47.666;9.434;2023-02-15T07:10:35;-1.00;99.90
15676;DHT22;7938;47.666;9.434;2023-02-15T07:13:02;-1.00;99.90
15676;DHT22;7938;47.666;9.434;2023-02-15T07:15:28;-1.00;99.90
15676;DHT22;7938;47.666;9.434;2023-02-15T07:17:57;-1.00;99.90
15676;DHT22;7938;47.666;9.434;2023-02-15T07:20:24;-1.00;99.90
15676;DHT22;7938;47.666;9.434;2023-02-15T07:22:52;-1.00;99.90
15676;DHT22;7938;47.666;9.434;2023-02-15T07:25:19;-0.90;99.90
15676;DHT22;7938;47.666;9.434;2023-02-15T07:27:46;-0.90;99.90
15676;DHT22;7938;47.666;9.434;2023-02-15T07:30:15;-0.70;99.90
15676;DHT22;7938;47.666;9.434;2023-02-15T07:32:42;-0.50;99.90
15676;DHT22;7938;47.666;9.434;2023-02-15T07:35:25;-0.60;99.90
15676;DHT22;7938;47.666;9.434;2023-02-15T07:37:52;-0.40;99.90
15676;DHT22;7938;47.666;9.434;2023-02-15T07:40:19;-0.60;99.90
15676;DHT22;7938;47.666;9.434;2023-02-15T07:42:48;-0.60;99.90
15676;DHT22;7938;47.666;9.434;2023-02-15T07:45:17;-0.70;99.90
15676;DHT22;7938;47.666;9.434;2023-02-15T07:47:44;-0.70;99.90
15676;DHT22;7938;47.666;9.434;2023-02-15T07:50:10;-0.70;99.90
15676;DHT22;7938;47.666;9.434;2023-02-15T07:52:39;-0.60;99.90
15676;DHT22;7938;47.666;9.434;2023-02-15T07:55:06;-0.60;99.90
15676;DHT22;7938;47.666;9.434;2023-02-15T07:57:34;-0.50;99.90
15676;DHT22;7938;47.666;9.434;2023-02-15T08:00:01;-0.50;99.90
15676;DHT22;7938;47.666;9.434;2023-02-15T08:02:28;-0.40;99.90
15676;DHT22;7938;47.666;9.434;2023-02-15T08:04:55;-0.30;99.90
15676;DHT22;7938;47.666;9.434;2023-02-15T08:07:22;-0.10;99.90
15676;DHT22;7938;47.666;9.434;2023-02-15T08:09:50;-0.10;99.90
15676;DHT22;7938;47.666;9.434;2023-02-15T08:12:18;-0.20;99.90
15676;DHT22;7938;47.666;9.434;2023-02-15T08:14:45;-0.30;99.90
15676;DHT22;7938;47.666;9.434;2023-02-15T08:17:12;-0.30;99.90
15676;DHT22;7938;47.666;9.434;2023-02-15T08:19:39;-0.20;99.90
15676;DHT22;7938;47.666;9.434;2023-02-15T08:22:07;0.10;99.90
15676;DHT22;7938;47.666;9.434;2023-02-15T08:24:36;-0.10;99.90
15676;DHT22;7938;47.666;9.434;2023-02-15T08:27:06;-0.20;99.90
15676;DHT22;7938;47.666;9.434;2023-02-15T08:29:34;-0.20;99.90
15676;DHT22;7938;47.666;9.434;2023-02-15T08:32:04;-0.20;99.90
15676;DHT22;7938;47.666;9.434;2023-02-15T08:34:33;-0.20;99.90
15676;DHT22;7938;47.666;9.434;2023-02-15T08:37:00;-0.20;99.90
15676;DHT22;7938;47.666;9.434;2023-02-15T08:39:27;-0.30;99.90
15676;DHT22;7938;47.666;9.434;2023-02-15T08:41:54;-0.20;99.90
15676;DHT22;7938;47.666;9.434;2023-02-15T08:44:22;-0.10;99.90
15676;DHT22;7938;47.666;9.434;2023-02-15T08:46:49;-0.10;99.90
15676;DHT22;7938;47.666;9.434;2023-02-15T08:49:18;0.00;99.90
15676;DHT22;7938;47.666;9.434;2023-02-15T08:51:46;0.00;99.90
15676;DHT22;7938;47.666;9.434;2023-02-15T08:54:15;0.10;99.90
15676;DHT22;7938;47.666;9.434;2023-02-15T08:56:43;0.10;99.90
15676;DHT22;7938;47.666;9.434;2023-02-15T08:59:13;0.20;99.90
15676;DHT22;7938;47.666;9.434;2023-02-15T09:01:42;0.20;99.90
15676;DHT22;7938;47.666;9.434;2023-02-15T09:04:10;0.20;99.90
15676;DHT22;7938;47.666;9.434;2023-02-15T09:06:39;0.30;99.90
15676;DHT22;7938;47.666;9.434;2023-02-15T09:09:07;0.30;99.90
15676;DHT22;7938;47.666;9.434;2023-02-15T09:11:36;0.60;99.90
15676;DHT22;7938;47.666;9.434;2023-02-15T09:14:05;0.20;99.90
15676;DHT22;7938;47.666;9.434;2023-02-15T09:16:35;0.30;99.90
15676;DHT22;7938;47.666;9.434;2023-02-15T09:19:04;0.40;99.90
15676;DHT22;7938;47.666;9.434;2023-02-15T09:21:32;0.40;99.90
15676;DHT22;7938;47.666;9.434;2023-02-15T09:24:01;0.50;99.90
15676;DHT22;7938;47.666;9.434;2023-02-15T09:26:29;0.90;99.90
15676;DHT22;7938;47.666;9.434;2023-02-15T09:28:58;1.00;99.90
15676;DHT22;7938;47.666;9.434;2023-02-15T09:31:27;0.80;99.90
15676;DHT22;7938;47.666;9.434;2023-02-15T09:33:55;0.80;99.90
15676;DHT22;7938;47.666;9.434;2023-02-15T09:36:25;0.70;99.90
15676;DHT22;7938;47.666;9.434;2023-02-15T09:38:55;0.70;99.90
15676;DHT22;7938;47.666;9.434;2023-02-15T09:44:27;0.90;99.90
15676;DHT22;7938;47.666;9.434;2023-02-15T09:47:16;0.80;99.90
15676;DHT22;7938;47.666;9.434;2023-02-15T09:49:54;1.00;99.90
15676;DHT22;7938;47.666;9.434;2023-02-15T09:52:39;1.00;99.90
15676;DHT22;7938;47.666;9.434;2023-02-15T09:55:30;1.10;99.90
15676;DHT22;7938;47.666;9.434;2023-02-15T09:58:08;1.10;99.90
15676;DHT22;7938;47.666;9.434;2023-02-15T10:00:46;1.20;99.90
15676;DHT22;7938;47.666;9.434;2023-02-15T10:03:25;1.20;99.90
15676;DHT22;7938;47.666;9.434;2023-02-15T10:06:10;1.20;99.90
15676;DHT22;7938;47.666;9.434;2023-02-15T10:08:54;1.20;99.90
15676;DHT22;7938;47.666;9.434;2023-02-15T10:11:33;1.30;99.90
15676;DHT22;7938;47.666;9.434;2023-02-15T10:14:19;1.40;99.90
15676;DHT22;7938;47.666;9.434;2023-02-15T10:16:59;1.50;99.90
15676;DHT22;7938;47.666;9.434;2023-02-15T10:19:35;1.40;99.90
15676;DHT22;7938;47.666;9.434;2023-02-15T10:22:17;1.50;99.90
15676;DHT22;7938;47.666;9.434;2023-02-15T10:24:59;1.50;99.90
15676;DHT22;7938;47.666;9.434;2023-02-15T10:27:33;1.60;99.90
15676;DHT22;7938;47.666;9.434;2023-02-15T10:30:09;1.70;99.90
15676;DHT22;7938;47.666;9.434;2023-02-15T10:32:43;1.90;99.90
15676;DHT22;7938;47.666;9.434;2023-02-15T10:35:20;2.00;99.90
15676;DHT22;7938;47.666;9.434;2023-02-15T10:37:56;2.10;99.90
15676;DHT22;7938;47.666;9.434;2023-02-15T10:40:35;2.10;99.90
15676;DHT22;7938;47.666;9.434;2023-02-15T10:43:14;2.10;99.90
15676;DHT22;7938;47.666;9.434;2023-02-15T10:45:51;2.30;99.90
15676;DHT22;7938;47.666;9.434;2023-02-15T10:51:14;2.50;99.90
15676;DHT22;7938;47.666;9.434;2023-02-15T10:54:02;2.20;99.90
15676;DHT22;7938;47.666;9.434;2023-02-15T10:56:42;2.30;99.90
15676;DHT22;7938;47.666;9.434;2023-02-15T10:59:22;2.20;99.90
15676;DHT22;7938;47.666;9.434;2023-02-15T11:01:55;2.20;99.90
15676;DHT22;7938;47.666;9.434;2023-02-15T11:04:45;2.30;99.90
15676;DHT22;7938;47.666;9.434;2023-02-15T11:07:18;2.30;99.90
15676;DHT22;7938;47.666;9.434;2023-02-15T11:09:49;2.40;99.90
15676;DHT22;7938;47.666;9.434;2023-02-15T11:12:23;2.60;99.90
15676;DHT22;7938;47.666;9.434;2023-02-15T11:14:53;2.60;99.90
15676;DHT22;7938;47.666;9.434;2023-02-15T11:17:25;2.70;99.90
15676;DHT22;7938;47.666;9.434;2023-02-15T11:20:00;2.80;99.90
15676;DHT22;7938;47.666;9.434;2023-02-15T11:22:31;2.70;99.90
15676;DHT22;7938;47.666;9.434;2023-02-15T11:25:00;2.70;99.90
15676;DHT22;7938;47.666;9.434;2023-02-15T11:27:31;2.50;99.90
15676;DHT22;7938;47.666;9.434;2023-02-15T11:30:01;2.50;99.90
15676;DHT22;7938;47.666;9.434;2023-02-15T11:32:32;2.50;99.90
15676;DHT22;7938;47.666;9.434;2023-02-15T11:35:02;2.40;99.90
15676;DHT22;7938;47.666;9.434;2023-02-15T11:37:35;2.40;99.90
15676;DHT22;7938;47.666;9.434;2023-02-15T11:40:13;2.30;99.90
15676;DHT22;7938;47.666;9.434;2023-02-15T11:42:42;2.40;99.90
15676;DHT22;7938;47.666;9.434;2023-02-15T11:45:20;2.40;99.90
15676;DHT22;7938;47.666;9.434;2023-02-15T11:47:58;2.40;99.90
15676;DHT22;7938;47.666;9.434;2023-02-15T11:50:27;2.60;99.90
15676;DHT22;7938;47.666;9.434;2023-02-15T11:52:58;2.60;99.90
15676;DHT22;7938;47.666;9.434;2023-02-15T11:55:27;2.80;99.90
15676;DHT22;7938;47.666;9.434;2023-02-15T11:57:59;3.00;99.90
15676;DHT22;7938;47.666;9.434;2023-02-15T12:00:33;2.90;99.90
15676;DHT22;7938;47.666;9.434;2023-02-15T12:03:12;3.00;99.90
15676;DHT22;7938;47.666;9.434;2023-02-15T12:05:42;3.10;99.90
15676;DHT22;7938;47.666;9.434;2023-02-15T12:08:16;2.90;99.90
15676;DHT22;7938;47.666;9.434;2023-02-15T12:10:55;3.00;99.90
15676;DHT22;7938;47.666;9.434;2023-02-15T12:13:22;3.00;99.90
15676;DHT22;7938;47.666;9.434;2023-02-15T12:15:52;3.20;99.90
15676;DHT22;7938;47.666;9.434;2023-02-15T12:18:33;3.50;99.90
15676;DHT22;7938;47.666;9.434;2023-02-15T12:21:03;3.50;99.90
15676;DHT22;7938;47.666;9.434;2023-02-15T12:23:33;3.40;99.90
15676;DHT22;7938;47.666;9.434;2023-02-15T12:26:00;3.50;99.90
15676;DHT22;7938;47.666;9.434;2023-02-15T12:28:31;3.30;99.90
15676;DHT22;7938;47.666;9.434;2023-02-15T12:31:00;3.40;99.90
15676;DHT22;7938;47.666;9.434;2023-02-15T12:33:30;3.60;99.90
15676;DHT22;7938;47.666;9.434;2023-02-15T12:36:03;3.70;99.90
15676;DHT22;7938;47.666;9.434;2023-02-15T12:38:31;3.90;99.90
15676;DHT22;7938;47.666;9.434;2023-02-15T12:41:01;3.90;99.90
15676;DHT22;7938;47.666;9.434;2023-02-15T12:43:32;3.70;99.90
15676;DHT22;7938;47.666;9.434;2023-02-15T12:46:20;4.10;99.90
15676;DHT22;7938;47.666;9.434;2023-02-15T12:49:05;4.40;99.90
15676;DHT22;7938;47.666;9.434;2023-02-15T12:51:43;4.70;99.90
15676;DHT22;7938;47.666;9.434;2023-02-15T12:54:17;4.40;99.90
15676;DHT22;7938;47.666;9.434;2023-02-15T12:56:44;4.40;99.90
15676;DHT22;7938;47.666;9.434;2023-02-15T12:59:13;4.30;99.90
15676;DHT22;7938;47.666;9.434;2023-02-15T13:01:41;4.30;99.90
15676;DHT22;7938;47.666;9.434;2023-02-15T13:04:21;4.20;99.90
15676;DHT22;7938;47.666;9.434;2023-02-15T13:06:50;4.20;99.90
15676;DHT22;7938;47.666;9.434;2023-02-15T13:09:20;4.40;99.90
15676;DHT22;7938;47.666;9.434;2023-02-15T13:11:47;4.10;99.90
15676;DHT22;7938;47.666;9.434;2023-02-15T13:14:18;3.80;99.90
15676;DHT22;7938;47.666;9.434;2023-02-15T13:16:48;3.80;99.90
15676;DHT22;7938;47.666;9.434;2023-02-15T13:19:18;3.70;99.90
15676;DHT22;7938;47.666;9.434;2023-02-15T13:21:48;3.70;99.90
15676;DHT22;7938;47.666;9.434;2023-02-15T13:24:20;3.70;99.90
15676;DHT22;7938;47.666;9.434;2023-02-15T13:26:48;3.50;99.90
15676;DHT22;7938;47.666;9.434;2023-02-15T13:29:21;3.60;99.90
15676;DHT22;7938;47.666;9.434;2023-02-15T13:31:50;3.60;99.90
15676;DHT22;7938;47.666;9.434;2023-02-15T13:34:22;3.60;99.90
15676;DHT22;7938;47.666;9.434;2023-02-15T13:36:57;3.40;99.90
15676;DHT22;7938;47.666;9.434;2023-02-15T13:39:30;3.40;99.90
15676;DHT22;7938;47.666;9.434;2023-02-15T13:42:12;3.90;99.90
15676;DHT22;7938;47.666;9.434;2023-02-15T13:47:44;3.50;99.90
15676;DHT22;7938;47.666;9.434;2023-02-15T13:50:35;3.80;99.90
15676;DHT22;7938;47.666;9.434;2023-02-15T13:53:23;3.80;99.90
15676;DHT22;7938;47.666;9.434;2023-02-15T13:55:56;3.60;99.90
15676;DHT22;7938;47.666;9.434;2023-02-15T13:58:41;3.60;99.90
15676;DHT22;7938;47.666;9.434;2023-02-15T14:01:19;3.60;99.90
15676;DHT22;7938;47.666;9.434;2023-02-15T14:04:09;3.50;99.90
15676;DHT22;7938;47.666;9.434;2023-02-15T14:06:50;3.70;99.90
15676;DHT22;7938;47.666;9.434;2023-02-15T14:09:28;3.60;99.90
15676;DHT22;7938;47.666;9.434;2023-02-15T14:12:10;3.50;99.90
15676;DHT22;7938;47.666;9.434;2023-02-15T14:15:08;3.50;99.90
15676;DHT22;7938;47.666;9.434;2023-02-15T14:17:46;3.20;99.90
15676;DHT22;7938;47.666;9.434;2023-02-15T14:20:22;3.20;99.90
15676;DHT22;7938;47.666;9.434;2023-02-15T14:23:01;3.30;99.90
15676;DHT22;7938;47.666;9.434;2023-02-15T14:25:34;3.40;99.90
15676;DHT22;7938;47.666;9.434;2023-02-15T14:28:09;3.60;99.90
15676;DHT22;7938;47.666;9.434;2023-02-15T14:30:38;3.80;99.90
15676;DHT22;7938;47.666;9.434;2023-02-15T14:33:08;3.80;99.90
15676;DHT22;7938;47.666;9.434;2023-02-15T14:35:35;3.60;99.90
15676;DHT22;7938;47.666;9.434;2023-02-15T14:38:09;3.50;99.90
15676;DHT22;7938;47.666;9.434;2023-02-15T14:40:45;3.60;99.90
15676;DHT22;7938;47.666;9.434;2023-02-15T14:43:45;3.60;99.90
15676;DHT22;7938;47.666;9.434;2023-02-15T14:46:21;3.50;99.90
15676;DHT22;7938;47.666;9.434;2023-02-15T14:48:52;3.30;99.90
15676;DHT22;7938;47.666;9.434;2023-02-15T14:54:59;3.20;99.90
15676;DHT22;7938;47.666;9.434;2023-02-15T14:57:34;3.30;99.90
15676;DHT22;7938;47.666;9.434;2023-02-15T15:02:48;3.00;99.90
15676;DHT22;7938;47.666;9.434;2023-02-15T15:05:19;2.70;99.90
15676;DHT22;7938;47.666;9.434;2023-02-15T15:07:49;2.70;99.90
15676;DHT22;7938;47.666;9.434;2023-02-15T15:10:40;2.70;99.90
15676;DHT22;7938;47.666;9.434;2023-02-15T15:13:36;2.60;99.90
15676;DHT22;7938;47.666;9.434;2023-02-15T15:19:10;2.50;99.90
15676;DHT22;7938;47.666;9.434;2023-02-15T15:21:56;2.50;99.90
15676;DHT22;7938;47.666;9.434;2023-02-15T15:24:52;2.40;99.90
15676;DHT22;7938;47.666;9.434;2023-02-15T15:27:54;2.30;99.90
15676;DHT22;7938;47.666;9.434;2023-02-15T15:36:56;2.50;99.90
15676;DHT22;7938;47.666;9.434;2023-02-15T15:42:35;2.40;99.90
15676;DHT22;7938;47.666;9.434;2023-02-15T15:48:25;2.40;99.90
15676;DHT22;7938;47.666;9.434;2023-02-15T15:50:56;2.10;99.90
15676;DHT22;7938;47.666;9.434;2023-02-15T15:53:26;2.10;99.90
15676;DHT22;7938;47.666;9.434;2023-02-15T15:55:57;2.10;99.90
15676;DHT22;7938;47.666;9.434;2023-02-15T15:58:25;2.20;99.90
15676;DHT22;7938;47.666;9.434;2023-02-15T16:00:57;2.20;99.90
15676;DHT22;7938;47.666;9.434;2023-02-15T16:03:27;2.20;99.90
15676;DHT22;7938;47.666;9.434;2023-02-15T16:05:55;2.20;99.90
15676;DHT22;7938;47.666;9.434;2023-02-15T16:08:30;2.10;99.90
15676;DHT22;7938;47.666;9.434;2023-02-15T16:10:58;1.90;99.90
15676;DHT22;7938;47.666;9.434;2023-02-15T16:13:26;1.90;99.90
15676;DHT22;7938;47.666;9.434;2023-02-15T16:15:55;1.90;99.90
15676;DHT22;7938;47.666;9.434;2023-02-15T16:18:24;1.90;99.90
15676;DHT22;7938;47.666;9.434;2023-02-15T16:20:54;1.80;99.90
15676;DHT22;7938;47.666;9.434;2023-02-15T16:23:36;1.80;99.90
15676;DHT22;7938;47.666;9.434;2023-02-15T16:26:09;1.70;99.90
15676;DHT22;7938;47.666;9.434;2023-02-15T16:28:47;1.60;99.90
15676;DHT22;7938;47.666;9.434;2023-02-15T16:31:17;1.50;99.90
15676;DHT22;7938;47.666;9.434;2023-02-15T16:33:44;1.50;99.90
15676;DHT22;7938;47.666;9.434;2023-02-15T16:36:21;1.40;99.90
15676;DHT22;7938;47.666;9.434;2023-02-15T16:39:07;1.30;99.90
15676;DHT22;7938;47.666;9.434;2023-02-15T16:41:35;1.20;99.90
15676;DHT22;7938;47.666;9.434;2023-02-15T16:44:06;1.10;99.90
15676;DHT22;7938;47.666;9.434;2023-02-15T16:46:37;1.10;99.90
15676;DHT22;7938;47.666;9.434;2023-02-15T16:49:14;1.00;99.90
15676;DHT22;7938;47.666;9.434;2023-02-15T16:51:43;0.90;99.90
15676;DHT22;7938;47.666;9.434;2023-02-15T16:54:16;0.90;99.90
15676;DHT22;7938;47.666;9.434;2023-02-15T16:56:46;0.90;99.90
15676;DHT22;7938;47.666;9.434;2023-02-15T16:59:24;1.00;99.90
15676;DHT22;7938;47.666;9.434;2023-02-15T17:01:55;0.80;99.90
15676;DHT22;7938;47.666;9.434;2023-02-15T17:04:28;0.80;99.90
15676;DHT22;7938;47.666;9.434;2023-02-15T17:07:02;0.70;99.90
15676;DHT22;7938;47.666;9.434;2023-02-15T17:09:32;0.60;99.90
15676;DHT22;7938;47.666;9.434;2023-02-15T17:11:59;0.40;99.90
15676;DHT22;7938;47.666;9.434;2023-02-15T17:14:29;0.40;99.90
15676;DHT22;7938;47.666;9.434;2023-02-15T17:17:05;0.40;99.90
15676;DHT22;7938;47.666;9.434;2023-02-15T17:19:43;0.30;99.90
15676;DHT22;7938;47.666;9.434;2023-02-15T17:22:18;0.20;99.90
15676;DHT22;7938;47.666;9.434;2023-02-15T17:24:47;0.20;99.90
15676;DHT22;7938;47.666;9.434;2023-02-15T17:27:16;0.20;99.90
15676;DHT22;7938;47.666;9.434;2023-02-15T17:29:49;0.20;99.90
15676;DHT22;7938;47.666;9.434;2023-02-15T17:32:20;0.20;99.90
15676;DHT22;7938;47.666;9.434;2023-02-15T17:34:56;0.20;99.90
15676;DHT22;7938;47.666;9.434;2023-02-15T17:37:30;0.20;99.90
15676;DHT22;7938;47.666;9.434;2023-02-15T17:39:59;0.20;99.90
15676;DHT22;7938;47.666;9.434;2023-02-15T17:42:26;0.30;99.90
15676;DHT22;7938;47.666;9.434;2023-02-15T17:44:53;0.30;99.90
15676;DHT22;7938;47.666;9.434;2023-02-15T17:47:23;0.40;99.90
15676;DHT22;7938;47.666;9.434;2023-02-15T17:49:52;0.50;99.90
15676;DHT22;7938;47.666;9.434;2023-02-15T17:52:20;0.40;99.90
15676;DHT22;7938;47.666;9.434;2023-02-15T17:54:47;0.30;99.90
15676;DHT22;7938;47.666;9.434;2023-02-15T17:57:31;0.30;99.90
15676;DHT22;7938;47.666;9.434;2023-02-15T17:59:58;0.30;99.90
15676;DHT22;7938;47.666;9.434;2023-02-15T18:02:44;0.30;99.90
15676;DHT22;7938;47.666;9.434;2023-02-15T18:05:29;0.30;99.90
15676;DHT22;7938;47.666;9.434;2023-02-15T18:08:15;0.30;99.90
15676;DHT22;7938;47.666;9.434;2023-02-15T18:11:00;0.30;99.90
15676;DHT22;7938;47.666;9.434;2023-02-15T18:13:44;0.30;99.90
15676;DHT22;7938;47.666;9.434;2023-02-15T18:16:14;0.40;99.90
15676;DHT22;7938;47.666;9.434;2023-02-15T18:18:43;0.40;99.90
15676;DHT22;7938;47.666;9.434;2023-02-15T18:21:10;0.40;99.90
15676;DHT22;7938;47.666;9.434;2023-02-15T18:23:38;0.40;99.90
15676;DHT22;7938;47.666;9.434;2023-02-15T18:26:06;0.40;99.90
15676;DHT22;7938;47.666;9.434;2023-02-15T18:28:33;0.40;99.90
15676;DHT22;7938;47.666;9.434;2023-02-15T18:31:00;0.40;99.90
15676;DHT22;7938;47.666;9.434;2023-02-15T18:33:33;0.40;99.90
15676;DHT22;7938;47.666;9.434;2023-02-15T18:36:04;0.40;99.90
15676;DHT22;7938;47.666;9.434;2023-02-15T18:38:32;0.40;99.90
15676;DHT22;7938;47.666;9.434;2023-02-15T18:41:05;0.40;99.90
15676;DHT22;7938;47.666;9.434;2023-02-15T18:43:32;0.40;99.90
15676;DHT22;7938;47.666;9.434;2023-02-15T18:45:59;0.30;99.90
15676;DHT22;7938;47.666;9.434;2023-02-15T18:48:26;0.30;99.90
15676;DHT22;7938;47.666;9.434;2023-02-15T18:50:53;0.20;99.90
15676;DHT22;7938;47.666;9.434;2023-02-15T18:53:21;0.20;99.90
15676;DHT22;7938;47.666;9.434;2023-02-15T18:55:48;0.10;99.90
15676;DHT22;7938;47.666;9.434;2023-02-15T18:58:17;0.10;99.90
15676;DHT22;7938;47.666;9.434;2023-02-15T19:00:45;0.00;99.90
15676;DHT22;7938;47.666;9.434;2023-02-15T19:03:13;0.00;99.90
15676;DHT22;7938;47.666;9.434;2023-02-15T19:05:42;-0.10;99.90
15676;DHT22;7938;47.666;9.434;2023-02-15T19:08:17;0.00;99.90
15676;DHT22;7938;47.666;9.434;2023-02-15T19:10:47;0.50;99.90
15676;DHT22;7938;47.666;9.434;2023-02-15T19:13:14;0.50;99.90
15676;DHT22;7938;47.666;9.434;2023-02-15T19:15:42;0.30;99.90
15676;DHT22;7938;47.666;9.434;2023-02-15T19:18:09;0.20;99.90
15676;DHT22;7938;47.666;9.434;2023-02-15T19:20:38;0.20;99.90
15676;DHT22;7938;47.666;9.434;2023-02-15T19:23:07;0.20;99.90
15676;DHT22;7938;47.666;9.434;2023-02-15T19:25:38;0.20;99.90
15676;DHT22;7938;47.666;9.434;2023-02-15T19:28:15;0.20;99.90
15676;DHT22;7938;47.666;9.434;2023-02-15T19:30:42;0.10;99.90
15676;DHT22;7938;47.666;9.434;2023-02-15T19:33:14;0.10;99.90
15676;DHT22;7938;47.666;9.434;2023-02-15T19:35:44;0.10;99.90
15676;DHT22;7938;47.666;9.434;2023-02-15T19:38:16;0.00;99.90
15676;DHT22;7938;47.666;9.434;2023-02-15T19:40:44;0.00;99.90
15676;DHT22;7938;47.666;9.434;2023-02-15T19:43:16;0.00;99.90
15676;DHT22;7938;47.666;9.434;2023-02-15T19:45:44;0.00;99.90
15676;DHT22;7938;47.666;9.434;2023-02-15T19:48:12;0.00;99.90
15676;DHT22;7938;47.666;9.434;2023-02-15T19:50:40;-0.10;99.90
15676;DHT22;7938;47.666;9.434;2023-02-15T19:53:19;-0.10;99.90
15676;DHT22;7938;47.666;9.434;2023-02-15T19:55:46;-0.20;99.90
15676;DHT22;7938;47.666;9.434;2023-02-15T19:58:15;-0.20;99.90
15676;DHT22;7938;47.666;9.434;2023-02-15T20:00:45;-0.30;99.90
15676;DHT22;7938;47.666;9.434;2023-02-15T20:03:12;-0.30;99.90
15676;DHT22;7938;47.666;9.434;2023-02-15T20:05:40;-0.30;99.90
15676;DHT22;7938;47.666;9.434;2023-02-15T20:08:13;-0.40;99.90
15676;DHT22;7938;47.666;9.434;2023-02-15T20:10:41;-0.40;99.90
15676;DHT22;7938;47.666;9.434;2023-02-15T20:13:12;-0.40;99.90
15676;DHT22;7938;47.666;9.434;2023-02-15T20:15:41;-0.20;99.90
15676;DHT22;7938;47.666;9.434;2023-02-15T20:18:08;-0.10;99.90
15676;DHT22;7938;47.666;9.434;2023-02-15T20:20:39;-0.20;99.90
15676;DHT22;7938;47.666;9.434;2023-02-15T20:23:16;-0.30;99.90
15676;DHT22;7938;47.666;9.434;2023-02-15T20:25:44;-0.40;99.90
15676;DHT22;7938;47.666;9.434;2023-02-15T20:28:17;-0.60;99.90
15676;DHT22;7938;47.666;9.434;2023-02-15T20:30:46;-0.70;99.90
15676;DHT22;7938;47.666;9.434;2023-02-15T20:33:13;-0.80;99.90
15676;DHT22;7938;47.666;9.434;2023-02-15T20:35:41;-0.70;99.90
15676;DHT22;7938;47.666;9.434;2023-02-15T20:38:16;-0.70;99.90
15676;DHT22;7938;47.666;9.434;2023-02-15T20:40:44;-0.70;99.90
15676;DHT22;7938;47.666;9.434;2023-02-15T20:43:25;-1.60;99.90
15676;DHT22;7938;47.666;9.434;2023-02-15T20:45:54;-0.80;99.90
15676;DHT22;7938;47.666;9.434;2023-02-15T20:48:20;-0.90;99.90
15676;DHT22;7938;47.666;9.434;2023-02-15T20:50:47;-0.80;99.90
15676;DHT22;7938;47.666;9.434;2023-02-15T20:53:15;-0.80;99.90
15676;DHT22;7938;47.666;9.434;2023-02-15T20:55:42;-0.80;99.90
15676;DHT22;7938;47.666;9.434;2023-02-15T20:58:19;-0.90;99.90
15676;DHT22;7938;47.666;9.434;2023-02-15T21:00:47;-0.80;99.90
15676;DHT22;7938;47.666;9.434;2023-02-15T21:03:17;-0.80;99.90
15676;DHT22;7938;47.666;9.434;2023-02-15T21:05:45;-0.80;99.90
15676;DHT22;7938;47.666;9.434;2023-02-15T21:08:17;-0.60;99.90
15676;DHT22;7938;47.666;9.434;2023-02-15T21:10:45;-0.60;99.90
15676;DHT22;7938;47.666;9.434;2023-02-15T21:13:19;-0.60;99.90
15676;DHT22;7938;47.666;9.434;2023-02-15T21:15:48;-0.70;99.90
15676;DHT22;7938;47.666;9.434;2023-02-15T21:18:19;-0.70;99.90
15676;DHT22;7938;47.666;9.434;2023-02-15T21:20:49;-0.70;99.90
15676;DHT22;7938;47.666;9.434;2023-02-15T21:23:19;-0.80;99.90
15676;DHT22;7938;47.666;9.434;2023-02-15T21:25:48;-0.60;99.90
15676;DHT22;7938;47.666;9.434;2023-02-15T21:28:19;-0.60;99.90
15676;DHT22;7938;47.666;9.434;2023-02-15T21:30:46;-0.60;99.90
15676;DHT22;7938;47.666;9.434;2023-02-15T21:33:15;-0.60;99.90
15676;DHT22;7938;47.666;9.434;2023-02-15T21:35:45;-0.40;99.90
15676;DHT22;7938;47.666;9.434;2023-02-15T21:38:14;-0.50;99.90
15676;DHT22;7938;47.666;9.434;2023-02-15T21:40:42;-0.60;99.90
15676;DHT22;7938;47.666;9.434;2023-02-15T21:43:13;-0.60;99.90
15676;DHT22;7938;47.666;9.434;2023-02-15T21:46:04;-0.70;99.90
15676;DHT22;7938;47.666;9.434;2023-02-15T21:48:53;-0.80;99.90
15676;DHT22;7938;47.666;9.434;2023-02-15T21:51:21;-1.00;99.90
15676;DHT22;7938;47.666;9.434;2023-02-15T21:54:07;-1.10;99.90
15676;DHT22;7938;47.666;9.434;2023-02-15T21:56:35;-1.10;99.90